sensor_id;sensor_type;location;lat;lon;timestamp;P1;durP1;ratioP1;P2;durP2;ratioP2
68168;SDS011;54981;50.206;15.978;2022-12-10T00:00:52;34.50;;;30.80;;
68168;SDS011;54981;50.206;15.978;2022-12-10T00:03:17;35.67;;;31.80;;
68168;SDS011;54981;50.206;15.978;2022-12-10T00:05:42;34.95;;;31.08;;
68168;SDS011;54981;50.206;15.978;2022-12-10T00:08:08;34.72;;;31.10;;
68168;SDS011;54981;50.206;15.978;2022-12-10T00:10:33;34.90;;;31.23;;
68168;SDS011;54981;50.206;15.978;2022-12-10T00:12:58;35.67;;;30.27;;
68168;SDS011;54981;50.206;15.978;2022-12-10T00:15:24;37.53;;;32.45;;
68168;SDS011;54981;50.206;15.978;2022-12-10T00:17:49;43.15;;;35.95;;
68168;SDS011;54981;50.206;15.978;2022-12-10T00:20:14;42.53;;;37.88;;
68168;SDS011;54981;50.206;15.978;2022-12-10T00:22:40;44.78;;;37.40;;
68168;SDS011;54981;50.206;15.978;2022-12-10T00:25:05;50.83;;;39.08;;
68168;SDS011;54981;50.206;15.978;2022-12-10T00:27:30;49.08;;;40.50;;
68168;SDS011;54981;50.206;15.978;2022-12-10T00:29:56;53.80;;;40.40;;
68168;SDS011;54981;50.206;15.978;2022-12-10T00:32:21;49.38;;;41.28;;
68168;SDS011;54981;50.206;15.978;2022-12-10T00:34:47;53.42;;;41.85;;
68168;SDS011;54981;50.206;15.978;2022-12-10T00:37:12;57.20;;;45.40;;
68168;SDS011;54981;50.206;15.978;2022-12-10T00:39:37;60.17;;;44.53;;
68168;SDS011;54981;50.206;15.978;2022-12-10T00:42:03;61.17;;;49.15;;
68168;SDS011;54981;50.206;15.978;2022-12-10T00:44:28;61.50;;;45.67;;
68168;SDS011;54981;50.206;15.978;2022-12-10T00:46:53;63.60;;;43.25;;
68168;SDS011;54981;50.206;15.978;2022-12-10T00:49:19;58.55;;;45.50;;
68168;SDS011;54981;50.206;15.978;2022-12-10T00:51:47;58.30;;;45.67;;
68168;SDS011;54981;50.206;15.978;2022-12-10T00:54:13;62.58;;;46.72;;
68168;SDS011;54981;50.206;15.978;2022-12-10T00:56:38;57.60;;;44.63;;
68168;SDS011;54981;50.206;15.978;2022-12-10T00:59:04;64.53;;;47.92;;
68168;SDS011;54981;50.206;15.978;2022-12-10T01:01:31;57.90;;;42.60;;
68168;SDS011;54981;50.206;15.978;2022-12-10T01:03:59;56.05;;;42.85;;
68168;SDS011;54981;50.206;15.978;2022-12-10T01:06:31;56.72;;;41.35;;
68168;SDS011;54981;50.206;15.978;2022-12-10T01:08:59;56.05;;;42.88;;
68168;SDS011;54981;50.206;15.978;2022-12-10T01:11:29;59.35;;;41.38;;
68168;SDS011;54981;50.206;15.978;2022-12-10T01:13:56;53.45;;;42.40;;
68168;SDS011;54981;50.206;15.978;2022-12-10T01:16:22;57.30;;;43.08;;
68168;SDS011;54981;50.206;15.978;2022-12-10T01:18:48;57.22;;;43.15;;
68168;SDS011;54981;50.206;15.978;2022-12-10T01:21:15;56.67;;;42.75;;
68168;SDS011;54981;50.206;15.978;2022-12-10T01:23:43;58.15;;;44.13;;
68168;SDS011;54981;50.206;15.978;2022-12-10T01:26:10;55.08;;;41.92;;
68168;SDS011;54981;50.206;15.978;2022-12-10T01:28:38;60.90;;;44.45;;
68168;SDS011;54981;50.206;15.978;2022-12-10T01:31:15;63.67;;;46.38;;
68168;SDS011;54981;50.206;15.978;2022-12-10T01:33:43;61.53;;;46.08;;
68168;SDS011;54981;50.206;15.978;2022-12-10T01:36:13;63.42;;;46.38;;
68168;SDS011;54981;50.206;15.978;2022-12-10T01:38:41;58.58;;;44.70;;
68168;SDS011;54981;50.206;15.978;2022-12-10T01:41:07;62.30;;;46.33;;
68168;SDS011;54981;50.206;15.978;2022-12-10T01:46:19;62.55;;;48.17;;
68168;SDS011;54981;50.206;15.978;2022-12-10T01:48:45;63.45;;;47.35;;
68168;SDS011;54981;50.206;15.978;2022-12-10T01:51:12;63.67;;;45.70;;
68168;SDS011;54981;50.206;15.978;2022-12-10T01:53:38;64.15;;;47.55;;
68168;SDS011;54981;50.206;15.978;2022-12-10T01:56:03;65.55;;;45.88;;
68168;SDS011;54981;50.206;15.978;2022-12-10T01:58:29;61.55;;;46.40;;
68168;SDS011;54981;50.206;15.978;2022-12-10T02:03:27;65.47;;;48.53;;
68168;SDS011;54981;50.206;15.978;2022-12-10T02:06:22;60.03;;;43.00;;
68168;SDS011;54981;50.206;15.978;2022-12-10T02:08:56;67.65;;;49.72;;
68168;SDS011;54981;50.206;15.978;2022-12-10T02:11:36;70.90;;;52.40;;
68168;SDS011;54981;50.206;15.978;2022-12-10T02:14:30;72.68;;;53.50;;
68168;SDS011;54981;50.206;15.978;2022-12-10T02:17:00;68.63;;;48.10;;
68168;SDS011;54981;50.206;15.978;2022-12-10T02:22:38;70.50;;;50.17;;
68168;SDS011;54981;50.206;15.978;2022-12-10T02:25:11;71.95;;;55.13;;
68168;SDS011;54981;50.206;15.978;2022-12-10T02:27:44;70.88;;;50.03;;
68168;SDS011;54981;50.206;15.978;2022-12-10T02:30:17;76.32;;;52.92;;
68168;SDS011;54981;50.206;15.978;2022-12-10T02:32:43;72.15;;;52.25;;
68168;SDS011;54981;50.206;15.978;2022-12-10T02:35:14;72.07;;;51.05;;
68168;SDS011;54981;50.206;15.978;2022-12-10T02:37:48;69.30;;;52.47;;
68168;SDS011;54981;50.206;15.978;2022-12-10T02:40:18;73.00;;;51.53;;
68168;SDS011;54981;50.206;15.978;2022-12-10T02:42:48;73.18;;;52.22;;
68168;SDS011;54981;50.206;15.978;2022-12-10T02:45:15;67.35;;;49.90;;
68168;SDS011;54981;50.206;15.978;2022-12-10T02:47:42;65.20;;;47.70;;
68168;SDS011;54981;50.206;15.978;2022-12-10T02:50:08;68.95;;;47.33;;
68168;SDS011;54981;50.206;15.978;2022-12-10T02:52:35;70.93;;;48.45;;
68168;SDS011;54981;50.206;15.978;2022-12-10T02:55:01;71.03;;;49.53;;
68168;SDS011;54981;50.206;15.978;2022-12-10T03:00:18;65.95;;;46.47;;
68168;SDS011;54981;50.206;15.978;2022-12-10T03:05:24;64.13;;;45.53;;
68168;SDS011;54981;50.206;15.978;2022-12-10T03:13:24;68.65;;;48.95;;
68168;SDS011;54981;50.206;15.978;2022-12-10T03:16:00;75.18;;;52.28;;
68168;SDS011;54981;50.206;15.978;2022-12-10T03:18:29;73.50;;;50.95;;
68168;SDS011;54981;50.206;15.978;2022-12-10T03:20:59;70.72;;;49.88;;
68168;SDS011;54981;50.206;15.978;2022-12-10T03:23:28;74.97;;;51.95;;
68168;SDS011;54981;50.206;15.978;2022-12-10T03:25:55;75.93;;;48.67;;
68168;SDS011;54981;50.206;15.978;2022-12-10T03:28:20;72.05;;;50.05;;
68168;SDS011;54981;50.206;15.978;2022-12-10T03:30:47;65.88;;;47.80;;
68168;SDS011;54981;50.206;15.978;2022-12-10T03:33:15;77.72;;;53.58;;
68168;SDS011;54981;50.206;15.978;2022-12-10T03:35:41;74.50;;;51.85;;
68168;SDS011;54981;50.206;15.978;2022-12-10T03:38:07;74.75;;;50.17;;
68168;SDS011;54981;50.206;15.978;2022-12-10T03:40:34;70.32;;;50.10;;
68168;SDS011;54981;50.206;15.978;2022-12-10T03:42:59;76.05;;;53.75;;
68168;SDS011;54981;50.206;15.978;2022-12-10T03:45:24;76.22;;;52.38;;
68168;SDS011;54981;50.206;15.978;2022-12-10T03:47:50;72.95;;;51.33;;
68168;SDS011;54981;50.206;15.978;2022-12-10T03:50:15;78.45;;;53.47;;
68168;SDS011;54981;50.206;15.978;2022-12-10T03:52:41;73.72;;;51.80;;
68168;SDS011;54981;50.206;15.978;2022-12-10T03:55:06;69.85;;;50.08;;
68168;SDS011;54981;50.206;15.978;2022-12-10T03:57:33;74.90;;;50.33;;
68168;SDS011;54981;50.206;15.978;2022-12-10T03:59:59;72.90;;;52.38;;
68168;SDS011;54981;50.206;15.978;2022-12-10T04:02:24;71.25;;;50.63;;
68168;SDS011;54981;50.206;15.978;2022-12-10T04:04:49;69.50;;;50.72;;
68168;SDS011;54981;50.206;15.978;2022-12-10T04:07:15;73.63;;;50.90;;
68168;SDS011;54981;50.206;15.978;2022-12-10T04:09:40;73.35;;;51.80;;
68168;SDS011;54981;50.206;15.978;2022-12-10T04:12:05;71.70;;;52.13;;
68168;SDS011;54981;50.206;15.978;2022-12-10T04:14:31;75.30;;;53.13;;
68168;SDS011;54981;50.206;15.978;2022-12-10T04:17:15;71.40;;;50.53;;
68168;SDS011;54981;50.206;15.978;2022-12-10T04:19:40;71.88;;;50.58;;
68168;SDS011;54981;50.206;15.978;2022-12-10T04:22:07;75.38;;;50.58;;
68168;SDS011;54981;50.206;15.978;2022-12-10T04:24:52;71.55;;;49.00;;
68168;SDS011;54981;50.206;15.978;2022-12-10T04:27:36;69.35;;;49.92;;
68168;SDS011;54981;50.206;15.978;2022-12-10T04:30:03;71.15;;;52.40;;
68168;SDS011;54981;50.206;15.978;2022-12-10T04:32:30;65.63;;;48.90;;
68168;SDS011;54981;50.206;15.978;2022-12-10T04:34:56;73.50;;;48.97;;
68168;SDS011;54981;50.206;15.978;2022-12-10T04:37:22;69.90;;;49.90;;
68168;SDS011;54981;50.206;15.978;2022-12-10T04:39:49;70.93;;;48.90;;
68168;SDS011;54981;50.206;15.978;2022-12-10T04:42:15;69.82;;;50.60;;
68168;SDS011;54981;50.206;15.978;2022-12-10T04:44:41;69.50;;;49.38;;
68168;SDS011;54981;50.206;15.978;2022-12-10T04:47:07;71.00;;;49.20;;
68168;SDS011;54981;50.206;15.978;2022-12-10T04:49:33;69.00;;;48.72;;
68168;SDS011;54981;50.206;15.978;2022-12-10T04:51:59;65.32;;;47.35;;
68168;SDS011;54981;50.206;15.978;2022-12-10T04:54:25;66.60;;;48.38;;
68168;SDS011;54981;50.206;15.978;2022-12-10T04:56:51;69.20;;;47.83;;
68168;SDS011;54981;50.206;15.978;2022-12-10T04:59:17;69.40;;;50.45;;
68168;SDS011;54981;50.206;15.978;2022-12-10T05:01:42;70.88;;;49.97;;
68168;SDS011;54981;50.206;15.978;2022-12-10T05:04:09;73.18;;;50.10;;
68168;SDS011;54981;50.206;15.978;2022-12-10T05:06:37;65.05;;;45.38;;
68168;SDS011;54981;50.206;15.978;2022-12-10T05:09:03;71.38;;;48.97;;
68168;SDS011;54981;50.206;15.978;2022-12-10T05:11:29;67.68;;;47.60;;
68168;SDS011;54981;50.206;15.978;2022-12-10T05:13:56;69.30;;;49.58;;
68168;SDS011;54981;50.206;15.978;2022-12-10T05:16:23;71.30;;;47.60;;
68168;SDS011;54981;50.206;15.978;2022-12-10T05:18:53;65.20;;;45.03;;
68168;SDS011;54981;50.206;15.978;2022-12-10T05:21:19;67.10;;;46.50;;
68168;SDS011;54981;50.206;15.978;2022-12-10T05:23:47;63.10;;;44.78;;
68168;SDS011;54981;50.206;15.978;2022-12-10T05:29:02;65.47;;;48.53;;
68168;SDS011;54981;50.206;15.978;2022-12-10T05:31:28;63.80;;;47.53;;
68168;SDS011;54981;50.206;15.978;2022-12-10T05:33:54;65.35;;;47.80;;
68168;SDS011;54981;50.206;15.978;2022-12-10T05:36:21;66.47;;;47.05;;
68168;SDS011;54981;50.206;15.978;2022-12-10T05:38:48;66.05;;;46.08;;
68168;SDS011;54981;50.206;15.978;2022-12-10T05:41:15;62.10;;;46.38;;
68168;SDS011;54981;50.206;15.978;2022-12-10T05:43:43;64.63;;;47.03;;
68168;SDS011;54981;50.206;15.978;2022-12-10T05:46:10;59.92;;;45.95;;
68168;SDS011;54981;50.206;15.978;2022-12-10T05:48:38;60.17;;;44.80;;
68168;SDS011;54981;50.206;15.978;2022-12-10T05:51:07;59.97;;;46.25;;
68168;SDS011;54981;50.206;15.978;2022-12-10T05:53:35;61.92;;;44.15;;
68168;SDS011;54981;50.206;15.978;2022-12-10T05:56:01;60.33;;;45.95;;
68168;SDS011;54981;50.206;15.978;2022-12-10T05:58:31;56.10;;;45.80;;
68168;SDS011;54981;50.206;15.978;2022-12-10T06:00:58;59.25;;;41.45;;
68168;SDS011;54981;50.206;15.978;2022-12-10T06:03:24;55.35;;;42.15;;
68168;SDS011;54981;50.206;15.978;2022-12-10T06:05:52;78.50;;;49.92;;
68168;SDS011;54981;50.206;15.978;2022-12-10T06:08:17;66.15;;;45.15;;
68168;SDS011;54981;50.206;15.978;2022-12-10T06:10:43;56.80;;;39.90;;
68168;SDS011;54981;50.206;15.978;2022-12-10T06:13:09;59.88;;;42.50;;
68168;SDS011;54981;50.206;15.978;2022-12-10T06:15:37;60.05;;;42.67;;
68168;SDS011;54981;50.206;15.978;2022-12-10T06:18:03;55.70;;;39.95;;
68168;SDS011;54981;50.206;15.978;2022-12-10T06:20:29;57.38;;;42.15;;
68168;SDS011;54981;50.206;15.978;2022-12-10T06:22:54;56.33;;;42.72;;
68168;SDS011;54981;50.206;15.978;2022-12-10T06:25:20;55.13;;;40.63;;
68168;SDS011;54981;50.206;15.978;2022-12-10T06:27:45;56.92;;;41.00;;
68168;SDS011;54981;50.206;15.978;2022-12-10T06:30:10;67.72;;;46.63;;
68168;SDS011;54981;50.206;15.978;2022-12-10T06:32:36;56.17;;;41.05;;
68168;SDS011;54981;50.206;15.978;2022-12-10T06:35:02;54.83;;;41.33;;
68168;SDS011;54981;50.206;15.978;2022-12-10T06:37:28;66.95;;;46.58;;
68168;SDS011;54981;50.206;15.978;2022-12-10T06:39:53;59.63;;;41.03;;
68168;SDS011;54981;50.206;15.978;2022-12-10T06:42:19;52.17;;;41.05;;
68168;SDS011;54981;50.206;15.978;2022-12-10T06:44:45;57.22;;;42.72;;
68168;SDS011;54981;50.206;15.978;2022-12-10T06:47:11;64.90;;;45.35;;
68168;SDS011;54981;50.206;15.978;2022-12-10T06:49:36;61.35;;;43.97;;
68168;SDS011;54981;50.206;15.978;2022-12-10T06:52:02;79.47;;;52.10;;
68168;SDS011;54981;50.206;15.978;2022-12-10T06:54:28;51.53;;;38.67;;
68168;SDS011;54981;50.206;15.978;2022-12-10T06:56:53;51.63;;;37.03;;
68168;SDS011;54981;50.206;15.978;2022-12-10T06:59:19;44.60;;;35.90;;
68168;SDS011;54981;50.206;15.978;2022-12-10T07:01:45;49.55;;;37.22;;
68168;SDS011;54981;50.206;15.978;2022-12-10T07:04:11;51.22;;;36.90;;
68168;SDS011;54981;50.206;15.978;2022-12-10T07:06:36;58.30;;;40.47;;
68168;SDS011;54981;50.206;15.978;2022-12-10T07:09:02;58.15;;;42.25;;
68168;SDS011;54981;50.206;15.978;2022-12-10T07:11:27;47.03;;;36.83;;
68168;SDS011;54981;50.206;15.978;2022-12-10T07:13:55;50.25;;;38.38;;
68168;SDS011;54981;50.206;15.978;2022-12-10T07:16:25;52.55;;;39.83;;
68168;SDS011;54981;50.206;15.978;2022-12-10T07:18:52;50.97;;;39.33;;
68168;SDS011;54981;50.206;15.978;2022-12-10T07:21:23;47.92;;;39.15;;
68168;SDS011;54981;50.206;15.978;2022-12-10T07:23:49;48.65;;;41.58;;
68168;SDS011;54981;50.206;15.978;2022-12-10T07:26:18;51.50;;;41.63;;
68168;SDS011;54981;50.206;15.978;2022-12-10T07:28:44;51.10;;;41.40;;
68168;SDS011;54981;50.206;15.978;2022-12-10T07:31:09;59.83;;;47.28;;
68168;SDS011;54981;50.206;15.978;2022-12-10T07:33:35;61.05;;;47.70;;
68168;SDS011;54981;50.206;15.978;2022-12-10T07:36:09;59.25;;;45.78;;
68168;SDS011;54981;50.206;15.978;2022-12-10T07:41:02;72.18;;;56.15;;
68168;SDS011;54981;50.206;15.978;2022-12-10T07:43:38;71.90;;;56.30;;
68168;SDS011;54981;50.206;15.978;2022-12-10T07:46:06;66.88;;;54.45;;
68168;SDS011;54981;50.206;15.978;2022-12-10T07:48:33;61.13;;;49.13;;
68168;SDS011;54981;50.206;15.978;2022-12-10T07:50:59;65.10;;;51.63;;
68168;SDS011;54981;50.206;15.978;2022-12-10T07:53:25;66.18;;;51.20;;
68168;SDS011;54981;50.206;15.978;2022-12-10T07:55:50;67.30;;;51.40;;
68168;SDS011;54981;50.206;15.978;2022-12-10T07:58:16;70.35;;;52.25;;
68168;SDS011;54981;50.206;15.978;2022-12-10T08:00:41;66.45;;;54.25;;
68168;SDS011;54981;50.206;15.978;2022-12-10T08:03:06;69.55;;;58.75;;
68168;SDS011;54981;50.206;15.978;2022-12-10T08:05:32;74.18;;;57.08;;
68168;SDS011;54981;50.206;15.978;2022-12-10T08:07:58;75.47;;;55.00;;
68168;SDS011;54981;50.206;15.978;2022-12-10T08:10:23;79.88;;;57.20;;
68168;SDS011;54981;50.206;15.978;2022-12-10T08:12:49;82.80;;;59.33;;
68168;SDS011;54981;50.206;15.978;2022-12-10T08:15:14;77.20;;;56.47;;
68168;SDS011;54981;50.206;15.978;2022-12-10T08:17:39;74.47;;;57.63;;
68168;SDS011;54981;50.206;15.978;2022-12-10T08:20:05;80.60;;;59.60;;
68168;SDS011;54981;50.206;15.978;2022-12-10T08:22:30;75.68;;;59.15;;
68168;SDS011;54981;50.206;15.978;2022-12-10T08:24:57;70.18;;;55.08;;
68168;SDS011;54981;50.206;15.978;2022-12-10T08:27:23;66.88;;;49.53;;
68168;SDS011;54981;50.206;15.978;2022-12-10T08:29:48;70.45;;;62.65;;
68168;SDS011;54981;50.206;15.978;2022-12-10T08:32:13;68.43;;;55.35;;
68168;SDS011;54981;50.206;15.978;2022-12-10T08:34:39;64.78;;;52.95;;
68168;SDS011;54981;50.206;15.978;2022-12-10T08:37:04;61.65;;;55.00;;
68168;SDS011;54981;50.206;15.978;2022-12-10T08:39:29;59.97;;;47.95;;
68168;SDS011;54981;50.206;15.978;2022-12-10T08:41:55;64.05;;;52.17;;
68168;SDS011;54981;50.206;15.978;2022-12-10T08:44:20;63.28;;;51.25;;
68168;SDS011;54981;50.206;15.978;2022-12-10T08:46:45;74.57;;;60.38;;
68168;SDS011;54981;50.206;15.978;2022-12-10T08:49:11;66.38;;;52.92;;
68168;SDS011;54981;50.206;15.978;2022-12-10T08:51:36;81.10;;;64.50;;
68168;SDS011;54981;50.206;15.978;2022-12-10T08:54:01;59.75;;;49.33;;
68168;SDS011;54981;50.206;15.978;2022-12-10T08:56:27;80.95;;;72.78;;
68168;SDS011;54981;50.206;15.978;2022-12-10T08:58:52;61.92;;;48.70;;
68168;SDS011;54981;50.206;15.978;2022-12-10T09:01:18;55.38;;;44.10;;
68168;SDS011;54981;50.206;15.978;2022-12-10T09:03:43;55.33;;;46.33;;
68168;SDS011;54981;50.206;15.978;2022-12-10T09:06:11;55.85;;;44.15;;
68168;SDS011;54981;50.206;15.978;2022-12-10T09:08:38;54.55;;;47.35;;
68168;SDS011;54981;50.206;15.978;2022-12-10T09:11:05;62.88;;;56.40;;
68168;SDS011;54981;50.206;15.978;2022-12-10T09:13:31;64.55;;;57.65;;
68168;SDS011;54981;50.206;15.978;2022-12-10T09:15:57;56.30;;;50.35;;
68168;SDS011;54981;50.206;15.978;2022-12-10T09:18:22;53.83;;;41.80;;
68168;SDS011;54981;50.206;15.978;2022-12-10T09:20:47;54.13;;;40.22;;
68168;SDS011;54981;50.206;15.978;2022-12-10T09:23:13;50.17;;;41.50;;
68168;SDS011;54981;50.206;15.978;2022-12-10T09:25:38;53.05;;;42.25;;
68168;SDS011;54981;50.206;15.978;2022-12-10T09:28:04;53.67;;;41.45;;
68168;SDS011;54981;50.206;15.978;2022-12-10T09:30:29;49.00;;;39.58;;
68168;SDS011;54981;50.206;15.978;2022-12-10T09:32:54;53.35;;;41.63;;
68168;SDS011;54981;50.206;15.978;2022-12-10T09:35:20;52.15;;;42.47;;
68168;SDS011;54981;50.206;15.978;2022-12-10T09:37:45;51.47;;;38.50;;
68168;SDS011;54981;50.206;15.978;2022-12-10T09:40:18;46.50;;;39.13;;
68168;SDS011;54981;50.206;15.978;2022-12-10T09:42:52;50.60;;;38.97;;
68168;SDS011;54981;50.206;15.978;2022-12-10T09:53:46;41.58;;;35.97;;
68168;SDS011;54981;50.206;15.978;2022-12-10T09:56:20;41.50;;;33.97;;
68168;SDS011;54981;50.206;15.978;2022-12-10T09:58:48;45.17;;;35.97;;
68168;SDS011;54981;50.206;15.978;2022-12-10T10:01:14;44.95;;;37.60;;
68168;SDS011;54981;50.206;15.978;2022-12-10T10:03:44;41.72;;;34.40;;
68168;SDS011;54981;50.206;15.978;2022-12-10T10:06:10;43.33;;;38.65;;
68168;SDS011;54981;50.206;15.978;2022-12-10T10:08:48;40.58;;;36.28;;
68168;SDS011;54981;50.206;15.978;2022-12-10T10:11:19;45.65;;;33.58;;
68168;SDS011;54981;50.206;15.978;2022-12-10T10:19:16;44.38;;;32.67;;
68168;SDS011;54981;50.206;15.978;2022-12-10T10:21:48;45.55;;;34.72;;
68168;SDS011;54981;50.206;15.978;2022-12-10T10:24:26;48.40;;;34.58;;
68168;SDS011;54981;50.206;15.978;2022-12-10T10:27:01;45.95;;;33.03;;
68168;SDS011;54981;50.206;15.978;2022-12-10T10:29:37;43.42;;;32.38;;
68168;SDS011;54981;50.206;15.978;2022-12-10T10:32:13;46.42;;;35.28;;
68168;SDS011;54981;50.206;15.978;2022-12-10T10:34:52;44.20;;;32.25;;
68168;SDS011;54981;50.206;15.978;2022-12-10T10:37:20;41.95;;;33.70;;
68168;SDS011;54981;50.206;15.978;2022-12-10T10:39:54;45.10;;;31.67;;
68168;SDS011;54981;50.206;15.978;2022-12-10T10:48:14;49.13;;;34.97;;
68168;SDS011;54981;50.206;15.978;2022-12-10T10:50:44;49.10;;;34.95;;
68168;SDS011;54981;50.206;15.978;2022-12-10T10:53:57;42.85;;;32.40;;
68168;SDS011;54981;50.206;15.978;2022-12-10T10:56:05;46.63;;;33.20;;
68168;SDS011;54981;50.206;15.978;2022-12-10T10:58:34;47.65;;;35.95;;
68168;SDS011;54981;50.206;15.978;2022-12-10T11:01:02;48.42;;;35.42;;
68168;SDS011;54981;50.206;15.978;2022-12-10T11:03:30;46.25;;;33.65;;
68168;SDS011;54981;50.206;15.978;2022-12-10T11:05:58;41.88;;;32.35;;
68168;SDS011;54981;50.206;15.978;2022-12-10T11:08:26;45.40;;;32.80;;
68168;SDS011;54981;50.206;15.978;2022-12-10T11:10:59;47.80;;;34.50;;
68168;SDS011;54981;50.206;15.978;2022-12-10T11:13:29;42.93;;;33.43;;
68168;SDS011;54981;50.206;15.978;2022-12-10T11:16:02;46.70;;;35.22;;
68168;SDS011;54981;50.206;15.978;2022-12-10T11:18:38;43.38;;;33.75;;
68168;SDS011;54981;50.206;15.978;2022-12-10T11:23:38;43.22;;;32.20;;
68168;SDS011;54981;50.206;15.978;2022-12-10T11:26:09;46.08;;;34.67;;
68168;SDS011;54981;50.206;15.978;2022-12-10T11:34:20;47.25;;;34.05;;
68168;SDS011;54981;50.206;15.978;2022-12-10T11:47:57;45.97;;;31.80;;
68168;SDS011;54981;50.206;15.978;2022-12-10T11:56:04;44.90;;;31.55;;
68168;SDS011;54981;50.206;15.978;2022-12-10T12:01:13;47.08;;;36.85;;
68168;SDS011;54981;50.206;15.978;2022-12-10T12:06:21;37.58;;;31.52;;
68168;SDS011;54981;50.206;15.978;2022-12-10T12:14:17;39.58;;;31.15;;
68168;SDS011;54981;50.206;15.978;2022-12-10T12:19:57;45.60;;;33.38;;
68168;SDS011;54981;50.206;15.978;2022-12-10T12:22:37;41.53;;;31.55;;
68168;SDS011;54981;50.206;15.978;2022-12-10T12:25:13;42.42;;;34.00;;
68168;SDS011;54981;50.206;15.978;2022-12-10T12:27:47;42.83;;;32.67;;
68168;SDS011;54981;50.206;15.978;2022-12-10T12:30:18;47.28;;;33.42;;
68168;SDS011;54981;50.206;15.978;2022-12-10T12:41:00;40.38;;;30.75;;
68168;SDS011;54981;50.206;15.978;2022-12-10T12:43:36;39.10;;;30.48;;
68168;SDS011;54981;50.206;15.978;2022-12-10T12:46:12;36.38;;;29.67;;
68168;SDS011;54981;50.206;15.978;2022-12-10T12:51:17;40.72;;;32.08;;
68168;SDS011;54981;50.206;15.978;2022-12-10T12:53:47;41.92;;;31.38;;
68168;SDS011;54981;50.206;15.978;2022-12-10T12:58:58;34.55;;;29.38;;
68168;SDS011;54981;50.206;15.978;2022-12-10T13:01:43;42.40;;;31.75;;
68168;SDS011;54981;50.206;15.978;2022-12-10T13:04:15;39.25;;;32.58;;
68168;SDS011;54981;50.206;15.978;2022-12-10T13:06:41;42.95;;;31.75;;
68168;SDS011;54981;50.206;15.978;2022-12-10T13:16:34;41.75;;;32.63;;
68168;SDS011;54981;50.206;15.978;2022-12-10T13:27:05;41.85;;;31.90;;
68168;SDS011;54981;50.206;15.978;2022-12-10T13:29:48;39.90;;;30.83;;
68168;SDS011;54981;50.206;15.978;2022-12-10T13:32:21;41.15;;;31.75;;
68168;SDS011;54981;50.206;15.978;2022-12-10T13:37:32;41.13;;;32.92;;
68168;SDS011;54981;50.206;15.978;2022-12-10T13:48:55;46.13;;;33.42;;
68168;SDS011;54981;50.206;15.978;2022-12-10T13:54:12;44.25;;;35.33;;
68168;SDS011;54981;50.206;15.978;2022-12-10T14:08:04;41.20;;;32.83;;
68168;SDS011;54981;50.206;15.978;2022-12-10T14:10:34;41.58;;;31.60;;
68168;SDS011;54981;50.206;15.978;2022-12-10T14:13:02;42.38;;;33.58;;
68168;SDS011;54981;50.206;15.978;2022-12-10T14:15:29;44.83;;;32.53;;
68168;SDS011;54981;50.206;15.978;2022-12-10T14:18:16;43.15;;;33.42;;
68168;SDS011;54981;50.206;15.978;2022-12-10T14:20:46;45.03;;;35.75;;
68168;SDS011;54981;50.206;15.978;2022-12-10T14:23:27;49.72;;;36.13;;
68168;SDS011;54981;50.206;15.978;2022-12-10T14:26:54;46.92;;;36.20;;
68168;SDS011;54981;50.206;15.978;2022-12-10T14:31:34;49.67;;;34.65;;
68168;SDS011;54981;50.206;15.978;2022-12-10T14:34:06;47.03;;;34.45;;
68168;SDS011;54981;50.206;15.978;2022-12-10T14:36:49;45.80;;;35.58;;
68168;SDS011;54981;50.206;15.978;2022-12-10T14:39:20;43.47;;;33.50;;
68168;SDS011;54981;50.206;15.978;2022-12-10T14:41:52;44.00;;;33.10;;
68168;SDS011;54981;50.206;15.978;2022-12-10T14:44:21;41.78;;;33.15;;
68168;SDS011;54981;50.206;15.978;2022-12-10T14:46:47;44.15;;;35.95;;
68168;SDS011;54981;50.206;15.978;2022-12-10T14:49:20;45.88;;;34.00;;
68168;SDS011;54981;50.206;15.978;2022-12-10T14:51:48;43.42;;;33.97;;
68168;SDS011;54981;50.206;15.978;2022-12-10T14:54:27;43.15;;;33.40;;
68168;SDS011;54981;50.206;15.978;2022-12-10T14:56:56;49.95;;;36.22;;
68168;SDS011;54981;50.206;15.978;2022-12-10T14:59:26;45.63;;;33.95;;
68168;SDS011;54981;50.206;15.978;2022-12-10T15:01:58;50.65;;;36.63;;
68168;SDS011;54981;50.206;15.978;2022-12-10T15:04:28;49.97;;;36.72;;
68168;SDS011;54981;50.206;15.978;2022-12-10T15:07:05;49.92;;;37.30;;
68168;SDS011;54981;50.206;15.978;2022-12-10T15:09:32;54.42;;;40.10;;
68168;SDS011;54981;50.206;15.978;2022-12-10T15:11:59;50.40;;;35.55;;
68168;SDS011;54981;50.206;15.978;2022-12-10T15:14:25;53.53;;;40.15;;
68168;SDS011;54981;50.206;15.978;2022-12-10T15:16:53;57.53;;;38.00;;
68168;SDS011;54981;50.206;15.978;2022-12-10T15:19:24;53.50;;;38.90;;
68168;SDS011;54981;50.206;15.978;2022-12-10T15:21:51;51.20;;;37.35;;
68168;SDS011;54981;50.206;15.978;2022-12-10T15:24:27;55.40;;;40.50;;
68168;SDS011;54981;50.206;15.978;2022-12-10T15:27:00;55.78;;;38.40;;
68168;SDS011;54981;50.206;15.978;2022-12-10T15:31:55;63.83;;;44.92;;
68168;SDS011;54981;50.206;15.978;2022-12-10T15:34:25;60.90;;;40.95;;
68168;SDS011;54981;50.206;15.978;2022-12-10T15:36:53;58.55;;;43.10;;
68168;SDS011;54981;50.206;15.978;2022-12-10T15:41:54;66.13;;;43.58;;
68168;SDS011;54981;50.206;15.978;2022-12-10T15:49:22;61.17;;;40.05;;
68168;SDS011;54981;50.206;15.978;2022-12-10T15:51:48;62.33;;;42.97;;
68168;SDS011;54981;50.206;15.978;2022-12-10T15:54:20;62.80;;;43.08;;
68168;SDS011;54981;50.206;15.978;2022-12-10T15:56:48;65.50;;;44.38;;
68168;SDS011;54981;50.206;15.978;2022-12-10T15:59:13;65.43;;;40.92;;
68168;SDS011;54981;50.206;15.978;2022-12-10T16:01:39;63.17;;;39.28;;
68168;SDS011;54981;50.206;15.978;2022-12-10T16:04:04;64.47;;;43.05;;
68168;SDS011;54981;50.206;15.978;2022-12-10T16:06:29;63.50;;;40.38;;
68168;SDS011;54981;50.206;15.978;2022-12-10T16:08:55;58.47;;;42.88;;
68168;SDS011;54981;50.206;15.978;2022-12-10T16:11:20;53.78;;;36.35;;
68168;SDS011;54981;50.206;15.978;2022-12-10T16:13:48;54.38;;;36.95;;
68168;SDS011;54981;50.206;15.978;2022-12-10T16:16:17;58.47;;;38.30;;
68168;SDS011;54981;50.206;15.978;2022-12-10T16:18:43;60.38;;;41.55;;
68168;SDS011;54981;50.206;15.978;2022-12-10T16:21:11;49.65;;;35.33;;
68168;SDS011;54981;50.206;15.978;2022-12-10T16:23:37;46.55;;;34.78;;
68168;SDS011;54981;50.206;15.978;2022-12-10T16:26:08;48.35;;;35.65;;
68168;SDS011;54981;50.206;15.978;2022-12-10T16:28:38;45.60;;;34.22;;
68168;SDS011;54981;50.206;15.978;2022-12-10T16:31:03;55.67;;;38.08;;
68168;SDS011;54981;50.206;15.978;2022-12-10T16:33:28;60.33;;;41.50;;
68168;SDS011;54981;50.206;15.978;2022-12-10T16:35:54;60.40;;;40.65;;
68168;SDS011;54981;50.206;15.978;2022-12-10T16:38:21;60.63;;;40.40;;
68168;SDS011;54981;50.206;15.978;2022-12-10T16:40:47;60.63;;;39.67;;
68168;SDS011;54981;50.206;15.978;2022-12-10T16:43:23;64.63;;;41.95;;
68168;SDS011;54981;50.206;15.978;2022-12-10T16:45:51;62.78;;;40.92;;